createdAt,value
2018-01-11T00:01:45.369Z,5.60
2018-01-11T00:04:12.978Z,5.60
2018-01-11T00:06:41.277Z,5.70
2018-01-11T00:09:11.044Z,5.70
2018-01-11T00:11:38.680Z,5.70
2018-01-11T00:14:06.217Z,5.70
2018-01-11T00:16:35.686Z,5.60
2018-01-11T00:19:04.111Z,5.60
2018-01-11T00:21:31.909Z,5.60
2018-01-11T00:23:59.431Z,5.60
2018-01-11T00:26:27.213Z,5.70
2018-01-11T00:28:54.824Z,5.70
2018-01-11T00:31:23.403Z,5.70
2018-01-11T00:33:51.718Z,5.60
2018-01-11T00:36:19.248Z,5.60
2018-01-11T00:38:46.969Z,5.60
2018-01-11T00:41:15.302Z,5.50
2018-01-11T00:43:43.803Z,5.40
2018-01-11T00:46:11.396Z,5.50
2018-01-11T00:48:39.798Z,5.50
2018-01-11T00:51:07.540Z,5.50
2018-01-11T00:53:35.160Z,5.50
2018-01-11T00:56:02.724Z,5.40
2018-01-11T00:58:30.413Z,5.50
2018-01-11T01:00:57.958Z,5.50
2018-01-11T01:03:25.502Z,5.30
2018-01-11T01:05:53.027Z,5.40
2018-01-11T01:08:20.914Z,5.50
2018-01-11T01:10:48.466Z,5.50
2018-01-11T01:13:16.239Z,5.60
2018-01-11T01:15:44.004Z,5.50
2018-01-11T01:18:11.574Z,5.50
2018-01-11T01:20:39.238Z,5.50
2018-01-11T01:23:06.767Z,5.40
2018-01-11T01:25:34.320Z,5.40
2018-01-11T01:28:01.851Z,5.40
2018-01-11T01:30:30.367Z,5.40
2018-01-11T01:32:58.962Z,5.50
2018-01-11T01:35:26.631Z,5.30
2018-01-11T01:37:56.333Z,5.30
2018-01-11T01:40:23.963Z,5.50
2018-01-11T01:42:51.515Z,5.70
2018-01-11T01:45:19.935Z,6.00
2018-01-11T01:47:48.295Z,6.00
2018-01-11T01:50:16.851Z,6.00
2018-01-11T01:52:44.451Z,6.10
2018-01-11T01:55:12.031Z,6.20
2018-01-11T01:57:39.559Z,6.20
2018-01-11T02:00:08.153Z,5.90
2018-01-11T02:02:35.689Z,5.90
2018-01-11T02:05:04.675Z,6.20
2018-01-11T02:07:33.063Z,6.30
2018-01-11T02:10:00.611Z,6.30
2018-01-11T02:12:28.307Z,6.30
2018-01-11T02:14:55.850Z,6.30
2018-01-11T02:17:23.410Z,6.20
2018-01-11T02:19:51.027Z,6.10
2018-01-11T02:22:18.574Z,6.10
2018-01-11T02:24:47.225Z,6.20
2018-01-11T02:27:14.798Z,5.90
2018-01-11T02:29:42.322Z,5.80
2018-01-11T02:32:10.635Z,6.00
2018-01-11T02:34:38.165Z,6.00
2018-01-11T02:37:05.690Z,6.20
2018-01-11T02:39:33.399Z,6.30
2018-01-11T02:42:00.959Z,6.30
2018-01-11T02:44:28.502Z,6.30
2018-01-11T02:46:56.023Z,6.40
2018-01-11T02:49:23.570Z,6.30
2018-01-11T02:51:52.050Z,6.40
2018-01-11T02:54:19.588Z,6.40
2018-01-11T02:56:47.115Z,6.50
2018-01-11T02:59:14.656Z,6.40
2018-01-11T03:01:42.949Z,6.40
2018-01-11T03:04:10.495Z,6.40
2018-01-11T03:06:38.028Z,6.30
2018-01-11T03:09:05.578Z,6.40
2018-01-11T03:11:33.098Z,6.40
2018-01-11T03:14:00.634Z,6.30
2018-01-11T03:16:29.127Z,6.30
2018-01-11T03:18:56.642Z,6.30
2018-01-11T03:21:24.193Z,6.30
2018-01-11T03:23:51.702Z,6.30
2018-01-11T03:26:19.246Z,6.40
2018-01-11T03:28:48.492Z,6.30
2018-01-11T03:31:16.035Z,6.30
2018-01-11T03:33:43.551Z,6.40
2018-01-11T03:36:11.094Z,6.40
2018-01-11T03:38:38.606Z,6.40
2018-01-11T03:41:07.092Z,6.40
2018-01-11T03:43:34.635Z,6.30
2018-01-11T03:46:02.152Z,6.10
2018-01-11T03:48:29.709Z,6.30
2018-01-11T03:50:57.989Z,6.40
2018-01-11T03:53:25.540Z,6.40
2018-01-11T03:55:53.071Z,6.40
2018-01-11T03:58:20.607Z,6.40
2018-01-11T04:00:48.130Z,6.50
2018-01-11T04:03:16.447Z,6.40
2018-01-11T04:05:43.962Z,6.40
2018-01-11T04:08:11.493Z,6.50
2018-01-11T04:10:39.038Z,6.40
2018-01-11T04:13:06.587Z,6.30
2018-01-11T04:15:35.077Z,6.30
2018-01-11T04:18:02.605Z,6.40
2018-01-11T04:20:30.265Z,6.30
2018-01-11T04:22:57.859Z,6.30
2018-01-11T04:25:26.350Z,6.20
2018-01-11T04:27:53.878Z,6.10
2018-01-11T04:30:21.415Z,6.00
2018-01-11T04:32:49.718Z,5.90
2018-01-11T04:35:17.324Z,5.90
2018-01-11T04:37:44.858Z,5.80
2018-01-11T04:40:12.376Z,5.60
2018-01-11T04:42:39.917Z,5.40
2018-01-11T04:45:07.439Z,5.40
2018-01-11T04:47:34.982Z,5.50
2018-01-11T04:50:02.494Z,5.50
2018-01-11T04:52:30.008Z,5.50
2018-01-11T04:54:57.543Z,5.40
2018-01-11T04:57:25.075Z,5.30
2018-01-11T04:59:54.007Z,5.20
2018-01-11T05:02:21.547Z,5.20
2018-01-11T05:04:49.114Z,5.20
2018-01-11T05:07:17.394Z,5.10
2018-01-11T05:09:44.949Z,5.10
2018-01-11T05:12:12.471Z,5.00
2018-01-11T05:14:40.750Z,5.00
2018-01-11T05:17:08.298Z,4.90
2018-01-11T05:19:36.770Z,4.90
2018-01-11T05:22:04.326Z,4.90
2018-01-11T05:24:31.842Z,4.80
2018-01-11T05:27:00.387Z,4.80
2018-01-11T05:29:28.704Z,4.70
2018-01-11T05:31:56.265Z,4.70
2018-01-11T05:34:23.778Z,4.70
2018-01-11T05:36:51.318Z,4.40
2018-01-11T05:39:18.924Z,4.40
2018-01-11T05:41:46.466Z,4.40
2018-01-11T05:44:14.018Z,4.40
2018-01-11T05:46:42.308Z,4.40
2018-01-11T05:49:09.849Z,4.40
2018-01-11T05:51:39.087Z,4.20
2018-01-11T05:54:08.556Z,4.20
2018-01-11T05:56:37.787Z,4.20
2018-01-11T05:59:05.326Z,4.20
2018-01-11T06:01:32.867Z,4.10
2018-01-11T06:04:01.147Z,4.10
2018-01-11T06:06:28.694Z,4.10
2018-01-11T06:08:56.206Z,4.10
2018-01-11T06:11:23.742Z,4.20
2018-01-11T06:13:51.269Z,4.20
2018-01-11T06:16:18.826Z,4.20
2018-01-11T06:18:46.338Z,4.10
2018-01-11T06:21:13.944Z,4.10
2018-01-11T06:23:41.463Z,4.20
2018-01-11T06:26:08.987Z,4.20
2018-01-11T06:28:36.535Z,4.30
2018-01-11T06:31:04.059Z,4.10
2018-01-11T06:33:31.603Z,4.20
2018-01-11T06:35:59.118Z,4.30
2018-01-11T06:38:27.423Z,4.40
2018-01-11T06:40:54.947Z,4.40
2018-01-11T06:43:22.511Z,4.30
2018-01-11T06:45:50.796Z,4.50
2018-01-11T06:48:18.302Z,4.40
2018-01-11T06:50:45.855Z,4.50
2018-01-11T06:53:13.375Z,4.50
2018-01-11T06:55:40.919Z,4.60
2018-01-11T06:58:10.149Z,4.70
2018-01-11T07:00:37.699Z,4.70
2018-01-11T07:03:05.206Z,4.60
2018-01-11T07:05:33.486Z,4.30
2018-01-11T07:08:01.031Z,4.30
2018-01-11T07:10:28.550Z,4.50
2018-01-11T07:12:56.100Z,4.80
2018-01-11T07:15:23.622Z,4.90
2018-01-11T07:17:53.903Z,5.00
2018-01-11T07:20:21.432Z,5.00
2018-01-11T07:22:48.976Z,5.00
2018-01-11T07:25:17.474Z,5.00
2018-01-11T07:27:45.012Z,5.00
2018-01-11T07:30:12.647Z,4.90
2018-01-11T07:32:40.164Z,5.00
2018-01-11T07:35:07.895Z,5.10
2018-01-11T07:37:35.410Z,5.00
2018-01-11T07:40:02.989Z,4.90
2018-01-11T07:42:30.513Z,5.00
2018-01-11T07:44:58.090Z,4.80
2018-01-11T07:47:25.621Z,4.70
2018-01-11T07:49:53.167Z,4.80
2018-01-11T07:52:20.717Z,4.80
2018-01-11T07:54:48.254Z,4.90
2018-01-11T07:57:15.802Z,5.00
2018-01-11T07:59:43.331Z,5.00
2018-01-11T08:02:10.902Z,4.90
2018-01-11T08:04:38.428Z,4.90
2018-01-11T08:07:05.942Z,4.90
2018-01-11T08:09:33.486Z,5.00
2018-01-11T08:12:01.018Z,5.10
2018-01-11T08:14:28.601Z,5.00
2018-01-11T08:16:56.130Z,5.00
2018-01-11T08:19:23.688Z,5.10
2018-01-11T08:21:51.220Z,5.10
2018-01-11T08:24:18.750Z,5.20
2018-01-11T08:26:46.299Z,5.30
2018-01-11T08:29:13.827Z,5.40
2018-01-11T08:31:41.385Z,5.40
2018-01-11T08:34:08.966Z,5.40
2018-01-11T08:36:36.510Z,5.40
2018-01-11T08:39:04.038Z,5.40
2018-01-11T08:41:31.574Z,5.50
2018-01-11T08:43:59.907Z,5.40
2018-01-11T08:46:27.452Z,5.40
2018-01-11T08:48:55.007Z,5.50
2018-01-11T08:51:22.538Z,5.60
2018-01-11T08:53:50.091Z,5.70
2018-01-11T08:56:17.623Z,5.80
2018-01-11T08:58:46.138Z,5.90
2018-01-11T09:01:14.459Z,5.90
2018-01-11T09:03:41.975Z,5.90
2018-01-11T09:06:09.538Z,6.00
2018-01-11T09:08:37.827Z,6.20
2018-01-11T09:11:05.376Z,6.20
2018-01-11T09:13:32.900Z,6.20
2018-01-11T09:16:01.346Z,6.10
2018-01-11T09:18:28.881Z,6.00
2018-01-11T09:20:57.346Z,5.90
2018-01-11T09:23:25.652Z,6.10
2018-01-11T09:25:53.175Z,6.10
2018-01-11T09:28:20.722Z,6.30
2018-01-11T09:30:48.238Z,6.50
2018-01-11T09:33:15.759Z,6.60
2018-01-11T09:35:44.116Z,6.80
2018-01-11T09:38:12.484Z,6.80
2018-01-11T09:40:40.035Z,6.80
2018-01-11T09:43:07.558Z,6.50
2018-01-11T09:45:35.216Z,6.20
2018-01-11T09:48:02.722Z,6.20
2018-01-11T09:50:30.234Z,6.30
2018-01-11T09:52:59.121Z,6.40
2018-01-11T09:55:26.642Z,6.30
2018-01-11T09:57:54.186Z,6.60
2018-01-11T10:00:22.378Z,6.70
2018-01-11T10:02:49.938Z,6.80
2018-01-11T10:05:18.445Z,7.10
2018-01-11T10:07:46.724Z,7.20
2018-01-11T10:10:16.216Z,7.20
2018-01-11T10:12:43.743Z,7.40
2018-01-11T10:15:11.303Z,7.50
2018-01-11T10:17:38.862Z,7.70
2018-01-11T10:20:08.207Z,7.70
2018-01-11T10:22:36.043Z,7.30
2018-01-11T10:25:04.356Z,7.70
2018-01-11T10:27:31.899Z,7.70
2018-01-11T10:29:59.473Z,7.90
2018-01-11T10:32:27.034Z,8.10
2018-01-11T10:34:54.552Z,8.10
2018-01-11T10:37:22.870Z,8.30
2018-01-11T10:39:50.648Z,8.30
2018-01-11T10:42:19.018Z,8.40
2018-01-11T10:44:46.574Z,8.40
2018-01-11T10:47:14.161Z,8.30
2018-01-11T10:49:41.711Z,8.30
2018-01-11T10:52:09.314Z,8.20
2018-01-11T10:54:36.862Z,8.00
2018-01-11T10:57:04.382Z,8.20
2018-01-11T10:59:33.026Z,8.40
2018-01-11T11:02:06.153Z,8.40
2018-01-11T11:04:33.712Z,8.60
2018-01-11T11:07:01.276Z,8.70
2018-01-11T11:09:28.824Z,8.80
2018-01-11T11:11:56.355Z,8.80
2018-01-11T11:14:23.875Z,8.70
2018-01-11T11:16:51.442Z,8.80
2018-01-11T11:19:20.208Z,8.90
2018-01-11T11:21:47.803Z,9.00
2018-01-11T11:24:15.329Z,9.10
2018-01-11T11:26:42.894Z,9.00
2018-01-11T11:29:11.420Z,9.20
2018-01-11T11:31:38.962Z,9.20
2018-01-11T11:34:07.269Z,9.30
2018-01-11T11:36:34.795Z,9.20
2018-01-11T11:39:03.174Z,9.50
2018-01-11T11:41:30.704Z,9.40
2018-01-11T11:43:58.246Z,9.60
2018-01-11T11:46:25.770Z,9.70
2018-01-11T11:48:53.937Z,9.80
2018-01-11T11:51:24.492Z,9.80
2018-01-11T11:53:52.012Z,9.60
2018-01-11T11:56:19.586Z,9.50
2018-01-11T11:58:47.115Z,9.50
2018-01-11T12:01:14.667Z,9.50
2018-01-11T12:03:43.176Z,9.60
2018-01-11T12:06:11.494Z,9.70
2018-01-11T12:08:39.061Z,9.70
2018-01-11T12:11:06.631Z,9.50
2018-01-11T12:13:34.159Z,9.70
2018-01-11T12:16:01.687Z,9.60
2018-01-11T12:18:29.994Z,9.80
2018-01-11T12:20:57.524Z,9.80
2018-01-11T12:23:26.835Z,10.00
2018-01-11T12:25:54.362Z,10.00
2018-01-11T12:28:22.679Z,10.30
2018-01-11T12:30:50.210Z,10.30
2018-01-11T12:33:17.749Z,10.10
2018-01-11T12:35:45.312Z,10.00
2018-01-11T12:38:12.846Z,9.80
2018-01-11T12:40:40.395Z,9.70
2018-01-11T12:43:07.929Z,9.50
2018-01-11T12:45:35.492Z,9.70
2018-01-11T12:48:03.014Z,9.70
2018-01-11T12:50:30.544Z,9.30
2018-01-11T12:52:58.102Z,9.50
2018-01-11T12:55:25.736Z,9.50
2018-01-11T12:57:54.527Z,9.20
2018-01-11T13:00:24.059Z,9.10
2018-01-11T13:02:51.796Z,8.90
2018-01-11T13:05:19.353Z,8.90
2018-01-11T13:07:46.888Z,9.10
2018-01-11T13:10:15.291Z,9.30
2018-01-11T13:12:42.827Z,9.30
2018-01-11T13:15:11.645Z,9.20
2018-01-11T13:17:39.174Z,9.00
2018-01-11T13:20:07.160Z,9.00
2018-01-11T13:22:34.762Z,9.20
2018-01-11T13:25:02.335Z,9.10
2018-01-11T13:27:30.854Z,9.40
2018-01-11T13:29:58.407Z,9.60
2018-01-11T13:32:25.987Z,9.80
2018-01-11T13:34:54.490Z,9.80
2018-01-11T13:37:22.034Z,9.90
2018-01-11T13:39:49.560Z,9.50
2018-01-11T13:42:17.106Z,9.50
2018-01-11T13:44:44.641Z,9.60
2018-01-11T13:47:13.286Z,9.70
2018-01-11T13:49:40.841Z,9.70
2018-01-11T13:52:08.368Z,9.60
2018-01-11T13:54:35.914Z,9.70
2018-01-11T13:57:03.626Z,9.40
2018-01-11T13:59:31.180Z,9.40
2018-01-11T14:01:58.713Z,9.60
2018-01-11T14:04:26.243Z,9.50
2018-01-11T14:06:53.812Z,9.50
2018-01-11T14:09:21.347Z,10.10
2018-01-11T14:11:49.890Z,10.20
2018-01-11T14:14:17.414Z,9.90
2018-01-11T14:16:44.970Z,9.80
2018-01-11T14:19:13.263Z,9.60
2018-01-11T14:21:41.567Z,9.50
2018-01-11T14:24:09.202Z,9.50
2018-01-11T14:26:36.756Z,9.40
2018-01-11T14:29:05.090Z,9.90
2018-01-11T14:31:32.635Z,9.90
2018-01-11T14:34:00.193Z,10.10
2018-01-11T14:36:27.729Z,10.20
2018-01-11T14:38:57.408Z,10.10
2018-01-11T14:41:30.759Z,10.10
2018-01-11T14:43:58.306Z,10.10
2018-01-11T14:46:25.960Z,9.60
2018-01-11T14:48:53.504Z,9.40
2018-01-11T14:51:21.828Z,9.60
2018-01-11T14:53:49.346Z,9.60
2018-01-11T14:56:16.914Z,9.20
2018-01-11T14:58:44.452Z,9.10
2018-01-11T15:01:12.755Z,8.90
2018-01-11T15:03:40.317Z,8.80
2018-01-11T15:06:08.725Z,8.60
2018-01-11T15:08:36.275Z,8.40
2018-01-11T15:11:03.814Z,8.50
2018-01-11T15:13:31.364Z,8.50
2018-01-11T15:15:59.858Z,8.60
2018-01-11T15:18:28.338Z,8.60
2018-01-11T15:20:57.349Z,8.70
2018-01-11T15:23:24.999Z,8.50
2018-01-11T15:25:52.590Z,8.10
2018-01-11T15:28:20.133Z,8.00
2018-01-11T15:30:47.692Z,8.10
2018-01-11T15:33:15.235Z,8.00
2018-01-11T15:35:42.804Z,7.80
2018-01-11T15:38:11.353Z,7.90
2018-01-11T15:40:38.879Z,8.00
2018-01-11T15:43:06.456Z,8.00
2018-01-11T15:45:34.743Z,8.10
2018-01-11T15:48:03.817Z,8.10
2018-01-11T15:50:37.546Z,8.00
2018-01-11T15:53:05.107Z,8.00
2018-01-11T15:55:32.638Z,7.90
2018-01-11T15:58:00.816Z,7.90
2018-01-11T16:00:35.781Z,7.90
2018-01-11T16:03:03.306Z,7.80
2018-01-11T16:05:31.638Z,7.90
2018-01-11T16:07:59.159Z,7.90
2018-01-11T16:10:27.692Z,7.90
2018-01-11T16:12:55.211Z,7.80
2018-01-11T16:15:22.782Z,7.70
2018-01-11T16:17:50.299Z,7.70
2018-01-11T16:20:19.576Z,7.60
2018-01-11T16:22:47.126Z,7.60
2018-01-11T16:25:14.655Z,7.80
2018-01-11T16:27:42.206Z,7.80
2018-01-11T16:30:09.742Z,7.80
2018-01-11T16:32:37.305Z,7.80
2018-01-11T16:35:05.771Z,7.80
2018-01-11T16:37:34.130Z,7.80
2018-01-11T16:40:02.619Z,7.80
2018-01-11T16:42:30.154Z,7.70
2018-01-11T16:44:57.698Z,7.70
2018-01-11T16:47:25.228Z,7.80
2018-01-11T16:49:52.779Z,7.80
2018-01-11T16:52:20.307Z,7.80
2018-01-11T16:54:47.891Z,7.70
2018-01-11T16:57:16.198Z,7.60
2018-01-11T16:59:43.717Z,7.60
2018-01-11T17:02:12.035Z,7.70
2018-01-11T17:04:39.559Z,7.70
2018-01-11T17:07:07.123Z,7.70
2018-01-11T17:09:35.414Z,7.70
2018-01-11T17:12:04.935Z,7.70
2018-01-11T17:14:32.483Z,7.70
2018-01-11T17:17:00.034Z,7.70
2018-01-11T17:19:27.592Z,7.60
2018-01-11T17:21:55.306Z,7.60
2018-01-11T17:24:22.991Z,7.50
2018-01-11T17:26:51.295Z,7.60
2018-01-11T17:29:18.854Z,7.60
2018-01-11T17:31:46.391Z,7.70
2018-01-11T17:34:14.701Z,7.60
2018-01-11T17:36:42.253Z,7.60
2018-01-11T17:39:10.635Z,7.50
2018-01-11T17:41:38.235Z,7.50
2018-01-11T17:44:05.764Z,7.30
2018-01-11T17:46:34.091Z,7.20
2018-01-11T17:49:01.634Z,7.20
2018-01-11T17:51:29.172Z,7.20
2018-01-11T17:53:56.995Z,7.30
2018-01-11T17:56:24.543Z,7.40
2018-01-11T17:58:54.047Z,7.20
2018-01-11T18:01:21.592Z,7.10
2018-01-11T18:03:49.149Z,7.00
2018-01-11T18:06:17.647Z,7.10
2018-01-11T18:08:45.934Z,7.00
2018-01-11T18:11:13.478Z,7.00
2018-01-11T18:13:41.002Z,7.10
2018-01-11T18:16:08.559Z,7.20
2018-01-11T18:18:36.074Z,7.10
2018-01-11T18:21:03.627Z,7.10
2018-01-11T18:23:31.171Z,7.10
2018-01-11T18:26:00.467Z,7.00
2018-01-11T18:28:29.716Z,6.90
2018-01-11T18:30:57.275Z,6.90
2018-01-11T18:33:25.765Z,6.80
2018-01-11T18:35:53.505Z,6.80
2018-01-11T18:38:21.028Z,6.60
2018-01-11T18:40:49.498Z,6.60
2018-01-11T18:43:17.820Z,6.60
2018-01-11T18:45:45.334Z,6.60
2018-01-11T18:48:12.892Z,6.60
2018-01-11T18:50:40.414Z,6.50
2018-01-11T18:53:07.983Z,6.50
2018-01-11T18:55:35.519Z,6.50
2018-01-11T18:58:03.040Z,6.40
2018-01-11T19:00:30.619Z,6.30
2018-01-11T19:02:58.159Z,6.30
2018-01-11T19:05:25.721Z,6.20
2018-01-11T19:07:54.002Z,6.20
2018-01-11T19:10:23.302Z,6.20
2018-01-11T19:12:51.588Z,6.20
2018-01-11T19:15:19.136Z,6.20
2018-01-11T19:17:47.443Z,6.10
2018-01-11T19:20:15.941Z,6.10
2018-01-11T19:22:43.495Z,6.10
2018-01-11T19:25:11.977Z,6.20
2018-01-11T19:27:39.532Z,6.30
2018-01-11T19:30:07.062Z,6.40
2018-01-11T19:32:34.617Z,6.40
2018-01-11T19:35:02.148Z,6.40
2018-01-11T19:37:30.267Z,6.40
2018-01-11T19:39:57.844Z,6.30
2018-01-11T19:42:25.372Z,6.40
2018-01-11T19:44:52.921Z,6.40
2018-01-11T19:47:20.442Z,6.40
2018-01-11T19:49:49.948Z,6.30
2018-01-11T19:52:17.476Z,6.30
2018-01-11T19:54:45.026Z,6.30
2018-01-11T19:57:12.551Z,6.30
2018-01-11T19:59:40.075Z,6.30
2018-01-11T20:02:07.642Z,6.10
2018-01-11T20:04:35.170Z,5.80
2018-01-11T20:07:02.719Z,5.90
2018-01-11T20:09:31.192Z,5.90
2018-01-11T20:11:58.740Z,6.00
2018-01-11T20:14:26.256Z,5.90
2018-01-11T20:16:54.773Z,5.80
2018-01-11T20:19:23.059Z,5.70
2018-01-11T20:21:50.581Z,5.70
2018-01-11T20:24:18.887Z,5.70
2018-01-11T20:26:46.415Z,5.70
2018-01-11T20:29:13.974Z,5.70
2018-01-11T20:31:42.466Z,5.70
2018-01-11T20:34:10.791Z,5.70
2018-01-11T20:36:39.552Z,5.70
2018-01-11T20:39:08.155Z,5.60
2018-01-11T20:41:35.715Z,5.60
2018-01-11T20:44:03.235Z,5.60
2018-01-11T20:46:32.512Z,5.50
2018-01-11T20:49:00.039Z,5.50
2018-01-11T20:51:27.794Z,5.60
2018-01-11T20:53:56.288Z,5.50
2018-01-11T20:56:23.849Z,5.50
2018-01-11T20:58:51.406Z,5.30
2018-01-11T21:01:18.952Z,5.20
2018-01-11T21:03:46.478Z,5.00
2018-01-11T21:06:14.010Z,4.90
2018-01-11T21:08:41.629Z,4.90
2018-01-11T21:11:09.189Z,5.00
2018-01-11T21:13:36.747Z,4.80
2018-01-11T21:16:04.293Z,4.80
2018-01-11T21:18:31.837Z,4.80
2018-01-11T21:21:02.120Z,4.80
2018-01-11T21:23:29.706Z,4.80
2018-01-11T21:25:57.251Z,4.80
2018-01-11T21:28:26.734Z,4.90
2018-01-11T21:30:54.258Z,4.90
2018-01-11T21:33:21.787Z,4.80
2018-01-11T21:35:49.486Z,4.80
2018-01-11T21:38:17.011Z,4.80
2018-01-11T21:40:44.554Z,4.80
2018-01-11T21:43:12.082Z,4.70
2018-01-11T21:45:39.609Z,4.60
2018-01-11T21:48:07.154Z,4.50
2018-01-11T21:50:35.436Z,4.50
2018-01-11T21:53:02.982Z,4.50
2018-01-11T21:55:31.262Z,4.40
2018-01-11T21:58:00.746Z,4.40
2018-01-11T22:00:28.263Z,4.40
2018-01-11T22:02:55.782Z,4.40
2018-01-11T22:05:24.086Z,4.20
2018-01-11T22:07:51.610Z,4.20
2018-01-11T22:10:19.936Z,4.20
2018-01-11T22:12:47.446Z,4.20
2018-01-11T22:15:14.961Z,4.20
2018-01-11T22:17:42.511Z,4.20
2018-01-11T22:20:10.043Z,4.20
2018-01-11T22:22:39.577Z,4.00
2018-01-11T22:25:07.135Z,3.90
2018-01-11T22:27:35.462Z,3.90
2018-01-11T22:30:03.157Z,4.00
2018-01-11T22:32:30.921Z,4.10
2018-01-11T22:34:58.686Z,4.20
2018-01-11T22:37:26.207Z,4.20
2018-01-11T22:39:56.454Z,4.40
2018-01-11T22:42:23.974Z,4.40
2018-01-11T22:44:51.575Z,4.20
2018-01-11T22:47:19.090Z,4.20
2018-01-11T22:49:46.635Z,4.30
2018-01-11T22:52:14.162Z,4.40
2018-01-11T22:54:41.689Z,4.10
2018-01-11T22:57:09.237Z,4.30
2018-01-11T22:59:37.722Z,4.20
2018-01-11T23:02:05.279Z,4.40
2018-01-11T23:04:32.797Z,4.50
2018-01-11T23:07:00.347Z,4.50
2018-01-11T23:09:27.869Z,4.50
2018-01-11T23:11:56.187Z,4.40
2018-01-11T23:14:23.699Z,4.40
2018-01-11T23:16:51.228Z,4.10
2018-01-11T23:19:18.775Z,4.10
2018-01-11T23:21:46.296Z,4.20
2018-01-11T23:24:13.855Z,4.10
2018-01-11T23:26:41.370Z,4.20
2018-01-11T23:29:10.850Z,4.30
2018-01-11T23:31:39.250Z,4.20
2018-01-11T23:34:06.791Z,4.30
2018-01-11T23:36:34.311Z,4.20
2018-01-11T23:39:01.827Z,4.10
2018-01-11T23:41:29.376Z,4.10
2018-01-11T23:43:56.882Z,4.00
2018-01-11T23:46:24.483Z,4.00
2018-01-11T23:48:51.962Z,4.00
2018-01-11T23:51:20.466Z,3.90
2018-01-11T23:53:47.987Z,3.90
2018-01-11T23:56:15.519Z,3.80
2018-01-11T23:58:43.067Z,3.70
